sensor_id;sensor_type;location;lat;lon;timestamp;P1;durP1;ratioP1;P2;durP2;ratioP2
48578;SDS011;34357;51.948;6.132;2023-07-29T00:01:43;18.00;;;12.00;;
48578;SDS011;34357;51.948;6.132;2023-07-29T00:04:09;14.02;;;11.30;;
48578;SDS011;34357;51.948;6.132;2023-07-29T00:06:35;14.80;;;11.95;;
48578;SDS011;34357;51.948;6.132;2023-07-29T00:09:01;15.05;;;12.95;;
48578;SDS011;34357;51.948;6.132;2023-07-29T00:11:27;14.88;;;12.70;;
48578;SDS011;34357;51.948;6.132;2023-07-29T00:13:54;14.63;;;13.13;;
48578;SDS011;34357;51.948;6.132;2023-07-29T00:16:20;13.82;;;12.43;;
48578;SDS011;34357;51.948;6.132;2023-07-29T00:18:49;12.77;;;11.48;;
48578;SDS011;34357;51.948;6.132;2023-07-29T00:21:14;15.65;;;12.00;;
48578;SDS011;34357;51.948;6.132;2023-07-29T00:23:40;15.05;;;12.82;;
48578;SDS011;34357;51.948;6.132;2023-07-29T00:26:06;16.60;;;12.88;;
48578;SDS011;34357;51.948;6.132;2023-07-29T00:28:32;14.57;;;12.95;;
48578;SDS011;34357;51.948;6.132;2023-07-29T00:30:58;15.48;;;12.75;;
48578;SDS011;34357;51.948;6.132;2023-07-29T00:33:24;15.65;;;13.30;;
48578;SDS011;34357;51.948;6.132;2023-07-29T00:35:49;14.90;;;13.20;;
48578;SDS011;34357;51.948;6.132;2023-07-29T00:38:15;16.92;;;14.00;;
48578;SDS011;34357;51.948;6.132;2023-07-29T00:40:41;14.55;;;13.02;;
48578;SDS011;34357;51.948;6.132;2023-07-29T00:43:07;16.88;;;12.68;;
48578;SDS011;34357;51.948;6.132;2023-07-29T00:45:34;16.77;;;13.68;;
48578;SDS011;34357;51.948;6.132;2023-07-29T00:48:00;18.67;;;15.57;;
48578;SDS011;34357;51.948;6.132;2023-07-29T00:50:27;15.40;;;13.32;;
48578;SDS011;34357;51.948;6.132;2023-07-29T00:52:55;16.02;;;13.63;;
48578;SDS011;34357;51.948;6.132;2023-07-29T00:55:22;14.70;;;13.13;;
48578;SDS011;34357;51.948;6.132;2023-07-29T00:57:48;19.50;;;14.63;;
48578;SDS011;34357;51.948;6.132;2023-07-29T01:00:16;16.67;;;14.48;;
48578;SDS011;34357;51.948;6.132;2023-07-29T01:02:43;16.05;;;14.35;;
48578;SDS011;34357;51.948;6.132;2023-07-29T01:05:09;16.95;;;13.90;;
48578;SDS011;34357;51.948;6.132;2023-07-29T01:07:47;17.77;;;13.70;;
48578;SDS011;34357;51.948;6.132;2023-07-29T01:16:50;14.73;;;12.80;;
48578;SDS011;34357;51.948;6.132;2023-07-29T01:19:26;15.65;;;13.57;;
48578;SDS011;34357;51.948;6.132;2023-07-29T01:21:57;15.63;;;13.10;;
48578;SDS011;34357;51.948;6.132;2023-07-29T01:24:24;18.17;;;15.18;;
48578;SDS011;34357;51.948;6.132;2023-07-29T01:26:49;16.30;;;14.60;;
48578;SDS011;34357;51.948;6.132;2023-07-29T01:29:16;15.18;;;12.80;;
48578;SDS011;34357;51.948;6.132;2023-07-29T01:31:44;14.23;;;12.48;;
48578;SDS011;34357;51.948;6.132;2023-07-29T01:34:21;18.58;;;13.90;;
48578;SDS011;34357;51.948;6.132;2023-07-29T01:36:53;17.42;;;14.02;;
48578;SDS011;34357;51.948;6.132;2023-07-29T01:39:22;17.08;;;13.27;;
48578;SDS011;34357;51.948;6.132;2023-07-29T01:41:51;14.75;;;13.25;;
48578;SDS011;34357;51.948;6.132;2023-07-29T01:44:17;15.60;;;13.73;;
48578;SDS011;34357;51.948;6.132;2023-07-29T01:46:44;17.13;;;14.07;;
48578;SDS011;34357;51.948;6.132;2023-07-29T01:49:11;15.80;;;14.20;;
48578;SDS011;34357;51.948;6.132;2023-07-29T01:51:37;17.05;;;15.32;;
48578;SDS011;34357;51.948;6.132;2023-07-29T01:54:02;19.27;;;15.15;;
48578;SDS011;34357;51.948;6.132;2023-07-29T01:56:29;17.27;;;15.30;;
48578;SDS011;34357;51.948;6.132;2023-07-29T01:58:56;15.63;;;13.95;;
48578;SDS011;34357;51.948;6.132;2023-07-29T02:01:22;17.85;;;14.13;;
48578;SDS011;34357;51.948;6.132;2023-07-29T02:03:47;17.23;;;13.90;;
48578;SDS011;34357;51.948;6.132;2023-07-29T02:06:19;21.52;;;16.55;;
48578;SDS011;34357;51.948;6.132;2023-07-29T02:08:45;18.98;;;15.43;;
48578;SDS011;34357;51.948;6.132;2023-07-29T02:11:11;16.92;;;15.15;;
48578;SDS011;34357;51.948;6.132;2023-07-29T02:13:37;17.77;;;14.45;;
48578;SDS011;34357;51.948;6.132;2023-07-29T02:16:03;16.58;;;13.85;;
48578;SDS011;34357;51.948;6.132;2023-07-29T02:18:29;17.48;;;15.40;;
48578;SDS011;34357;51.948;6.132;2023-07-29T02:20:55;15.95;;;14.30;;
48578;SDS011;34357;51.948;6.132;2023-07-29T02:23:20;21.73;;;16.25;;
48578;SDS011;34357;51.948;6.132;2023-07-29T02:25:46;18.38;;;15.65;;
48578;SDS011;34357;51.948;6.132;2023-07-29T02:28:12;20.00;;;16.70;;
48578;SDS011;34357;51.948;6.132;2023-07-29T02:30:40;20.92;;;18.58;;
48578;SDS011;34357;51.948;6.132;2023-07-29T02:33:07;22.85;;;18.77;;
48578;SDS011;34357;51.948;6.132;2023-07-29T02:35:32;21.13;;;18.13;;
48578;SDS011;34357;51.948;6.132;2023-07-29T02:37:58;20.77;;;18.13;;
48578;SDS011;34357;51.948;6.132;2023-07-29T02:40:25;19.42;;;17.33;;
48578;SDS011;34357;51.948;6.132;2023-07-29T02:42:52;18.65;;;16.73;;
48578;SDS011;34357;51.948;6.132;2023-07-29T02:45:18;18.05;;;16.17;;
48578;SDS011;34357;51.948;6.132;2023-07-29T02:47:43;18.52;;;16.50;;
48578;SDS011;34357;51.948;6.132;2023-07-29T02:50:09;18.55;;;16.55;;
48578;SDS011;34357;51.948;6.132;2023-07-29T02:52:35;20.58;;;17.50;;
48578;SDS011;34357;51.948;6.132;2023-07-29T02:55:00;19.95;;;15.95;;
48578;SDS011;34357;51.948;6.132;2023-07-29T02:57:26;19.63;;;16.35;;
48578;SDS011;34357;51.948;6.132;2023-07-29T02:59:52;17.13;;;15.18;;
48578;SDS011;34357;51.948;6.132;2023-07-29T03:02:18;19.27;;;16.77;;
48578;SDS011;34357;51.948;6.132;2023-07-29T03:04:44;17.90;;;15.65;;
48578;SDS011;34357;51.948;6.132;2023-07-29T03:07:09;22.42;;;16.40;;
48578;SDS011;34357;51.948;6.132;2023-07-29T03:09:36;22.75;;;17.13;;
48578;SDS011;34357;51.948;6.132;2023-07-29T03:12:01;20.58;;;17.20;;
48578;SDS011;34357;51.948;6.132;2023-07-29T03:14:27;25.13;;;18.63;;
48578;SDS011;34357;51.948;6.132;2023-07-29T03:16:53;23.33;;;19.15;;
48578;SDS011;34357;51.948;6.132;2023-07-29T03:19:19;19.20;;;17.08;;
48578;SDS011;34357;51.948;6.132;2023-07-29T03:21:45;21.75;;;18.80;;
48578;SDS011;34357;51.948;6.132;2023-07-29T03:24:11;21.10;;;17.92;;
48578;SDS011;34357;51.948;6.132;2023-07-29T03:26:37;26.27;;;19.15;;
48578;SDS011;34357;51.948;6.132;2023-07-29T03:29:02;20.90;;;16.98;;
48578;SDS011;34357;51.948;6.132;2023-07-29T03:31:28;22.67;;;18.05;;
48578;SDS011;34357;51.948;6.132;2023-07-29T03:33:54;25.95;;;17.35;;
48578;SDS011;34357;51.948;6.132;2023-07-29T03:36:20;21.45;;;16.90;;
48578;SDS011;34357;51.948;6.132;2023-07-29T03:38:46;20.58;;;16.25;;
48578;SDS011;34357;51.948;6.132;2023-07-29T03:41:12;21.20;;;15.07;;
48578;SDS011;34357;51.948;6.132;2023-07-29T03:43:38;17.90;;;14.52;;
48578;SDS011;34357;51.948;6.132;2023-07-29T03:46:04;15.23;;;12.90;;
48578;SDS011;34357;51.948;6.132;2023-07-29T03:48:31;21.85;;;13.82;;
48578;SDS011;34357;51.948;6.132;2023-07-29T03:50:56;18.60;;;13.27;;
48578;SDS011;34357;51.948;6.132;2023-07-29T03:53:22;15.55;;;11.13;;
48578;SDS011;34357;51.948;6.132;2023-07-29T03:55:48;13.35;;;10.70;;
48578;SDS011;34357;51.948;6.132;2023-07-29T03:58:15;11.55;;;9.55;;
48578;SDS011;34357;51.948;6.132;2023-07-29T04:00:41;12.15;;;10.60;;
48578;SDS011;34357;51.948;6.132;2023-07-29T04:03:08;12.27;;;9.93;;
48578;SDS011;34357;51.948;6.132;2023-07-29T04:05:34;15.52;;;9.32;;
48578;SDS011;34357;51.948;6.132;2023-07-29T04:08:00;11.73;;;9.43;;
48578;SDS011;34357;51.948;6.132;2023-07-29T04:10:26;15.95;;;9.55;;
48578;SDS011;34357;51.948;6.132;2023-07-29T04:12:52;10.48;;;8.98;;
48578;SDS011;34357;51.948;6.132;2023-07-29T04:15:17;11.85;;;9.15;;
48578;SDS011;34357;51.948;6.132;2023-07-29T04:17:43;9.63;;;8.55;;
48578;SDS011;34357;51.948;6.132;2023-07-29T04:20:10;9.50;;;8.18;;
48578;SDS011;34357;51.948;6.132;2023-07-29T04:22:36;10.73;;;7.80;;
48578;SDS011;34357;51.948;6.132;2023-07-29T04:25:01;9.55;;;6.95;;
48578;SDS011;34357;51.948;6.132;2023-07-29T04:27:29;10.15;;;7.38;;
48578;SDS011;34357;51.948;6.132;2023-07-29T04:29:55;9.27;;;6.55;;
48578;SDS011;34357;51.948;6.132;2023-07-29T04:32:21;12.93;;;6.70;;
48578;SDS011;34357;51.948;6.132;2023-07-29T04:34:46;6.85;;;5.80;;
48578;SDS011;34357;51.948;6.132;2023-07-29T04:37:12;8.82;;;6.38;;
48578;SDS011;34357;51.948;6.132;2023-07-29T04:39:38;12.77;;;6.15;;
48578;SDS011;34357;51.948;6.132;2023-07-29T04:42:04;9.02;;;6.53;;
48578;SDS011;34357;51.948;6.132;2023-07-29T04:44:30;9.13;;;6.90;;
48578;SDS011;34357;51.948;6.132;2023-07-29T04:46:55;11.57;;;7.30;;
48578;SDS011;34357;51.948;6.132;2023-07-29T04:49:21;9.45;;;6.90;;
48578;SDS011;34357;51.948;6.132;2023-07-29T04:51:47;9.43;;;6.53;;
48578;SDS011;34357;51.948;6.132;2023-07-29T04:54:12;9.82;;;6.72;;
48578;SDS011;34357;51.948;6.132;2023-07-29T04:56:38;9.50;;;7.05;;
48578;SDS011;34357;51.948;6.132;2023-07-29T04:59:04;12.73;;;7.45;;
48578;SDS011;34357;51.948;6.132;2023-07-29T05:01:29;11.13;;;7.82;;
48578;SDS011;34357;51.948;6.132;2023-07-29T05:03:55;11.60;;;7.20;;
48578;SDS011;34357;51.948;6.132;2023-07-29T05:06:21;8.82;;;7.28;;
48578;SDS011;34357;51.948;6.132;2023-07-29T05:08:47;8.13;;;6.90;;
48578;SDS011;34357;51.948;6.132;2023-07-29T05:11:12;10.68;;;6.70;;
48578;SDS011;34357;51.948;6.132;2023-07-29T05:13:38;7.65;;;6.22;;
48578;SDS011;34357;51.948;6.132;2023-07-29T05:16:04;7.07;;;5.75;;
48578;SDS011;34357;51.948;6.132;2023-07-29T05:18:30;10.48;;;5.85;;
48578;SDS011;34357;51.948;6.132;2023-07-29T05:20:56;7.72;;;4.35;;
48578;SDS011;34357;51.948;6.132;2023-07-29T05:23:21;7.28;;;5.20;;
48578;SDS011;34357;51.948;6.132;2023-07-29T05:25:47;6.35;;;4.40;;
48578;SDS011;34357;51.948;6.132;2023-07-29T05:28:13;6.47;;;4.10;;
48578;SDS011;34357;51.948;6.132;2023-07-29T05:30:38;7.35;;;3.92;;
48578;SDS011;34357;51.948;6.132;2023-07-29T05:33:05;6.97;;;4.10;;
48578;SDS011;34357;51.948;6.132;2023-07-29T05:35:33;6.72;;;3.83;;
48578;SDS011;34357;51.948;6.132;2023-07-29T05:37:59;4.45;;;3.92;;
48578;SDS011;34357;51.948;6.132;2023-07-29T05:40:25;6.72;;;3.80;;
48578;SDS011;34357;51.948;6.132;2023-07-29T05:42:51;6.22;;;3.97;;
48578;SDS011;34357;51.948;6.132;2023-07-29T05:45:17;6.20;;;4.63;;
48578;SDS011;34357;51.948;6.132;2023-07-29T05:47:42;6.90;;;3.92;;
48578;SDS011;34357;51.948;6.132;2023-07-29T05:50:09;5.82;;;4.93;;
48578;SDS011;34357;51.948;6.132;2023-07-29T05:52:34;7.32;;;4.65;;
48578;SDS011;34357;51.948;6.132;2023-07-29T05:55:00;7.65;;;4.45;;
48578;SDS011;34357;51.948;6.132;2023-07-29T05:57:26;5.70;;;5.10;;
48578;SDS011;34357;51.948;6.132;2023-07-29T05:59:52;9.10;;;5.07;;
48578;SDS011;34357;51.948;6.132;2023-07-29T06:02:18;9.05;;;5.18;;
48578;SDS011;34357;51.948;6.132;2023-07-29T06:04:44;6.20;;;4.70;;
48578;SDS011;34357;51.948;6.132;2023-07-29T06:07:10;8.68;;;5.07;;
48578;SDS011;34357;51.948;6.132;2023-07-29T06:09:36;7.32;;;5.50;;
48578;SDS011;34357;51.948;6.132;2023-07-29T06:12:02;7.95;;;5.88;;
48578;SDS011;34357;51.948;6.132;2023-07-29T06:14:28;7.95;;;5.60;;
48578;SDS011;34357;51.948;6.132;2023-07-29T06:16:53;6.13;;;4.72;;
48578;SDS011;34357;51.948;6.132;2023-07-29T06:19:19;12.10;;;5.78;;
48578;SDS011;34357;51.948;6.132;2023-07-29T06:21:45;7.20;;;5.57;;
48578;SDS011;34357;51.948;6.132;2023-07-29T06:24:11;10.00;;;5.25;;
48578;SDS011;34357;51.948;6.132;2023-07-29T06:26:37;9.05;;;5.65;;
48578;SDS011;34357;51.948;6.132;2023-07-29T06:29:02;14.38;;;5.88;;
48578;SDS011;34357;51.948;6.132;2023-07-29T06:31:28;9.07;;;5.45;;
48578;SDS011;34357;51.948;6.132;2023-07-29T06:33:54;8.60;;;5.65;;
48578;SDS011;34357;51.948;6.132;2023-07-29T06:36:20;9.20;;;5.70;;
48578;SDS011;34357;51.948;6.132;2023-07-29T06:38:46;8.35;;;5.20;;
48578;SDS011;34357;51.948;6.132;2023-07-29T06:41:12;9.38;;;5.93;;
48578;SDS011;34357;51.948;6.132;2023-07-29T06:43:38;9.15;;;5.35;;
48578;SDS011;34357;51.948;6.132;2023-07-29T06:46:03;11.10;;;5.78;;
48578;SDS011;34357;51.948;6.132;2023-07-29T06:48:29;6.60;;;5.00;;
48578;SDS011;34357;51.948;6.132;2023-07-29T06:50:55;5.95;;;4.70;;
48578;SDS011;34357;51.948;6.132;2023-07-29T06:53:25;7.63;;;5.32;;
48578;SDS011;34357;51.948;6.132;2023-07-29T06:55:54;7.82;;;4.57;;
48578;SDS011;34357;51.948;6.132;2023-07-29T06:58:19;6.38;;;4.75;;
48578;SDS011;34357;51.948;6.132;2023-07-29T07:00:45;9.73;;;5.03;;
48578;SDS011;34357;51.948;6.132;2023-07-29T07:03:11;6.38;;;4.90;;
48578;SDS011;34357;51.948;6.132;2023-07-29T07:05:37;10.15;;;5.00;;
48578;SDS011;34357;51.948;6.132;2023-07-29T07:08:03;9.95;;;5.22;;
48578;SDS011;34357;51.948;6.132;2023-07-29T07:10:28;8.20;;;5.53;;
48578;SDS011;34357;51.948;6.132;2023-07-29T07:12:54;6.93;;;5.10;;
48578;SDS011;34357;51.948;6.132;2023-07-29T07:15:20;7.35;;;4.85;;
48578;SDS011;34357;51.948;6.132;2023-07-29T07:17:46;8.10;;;5.10;;
48578;SDS011;34357;51.948;6.132;2023-07-29T07:20:12;6.38;;;4.85;;
48578;SDS011;34357;51.948;6.132;2023-07-29T07:22:37;6.50;;;4.30;;
48578;SDS011;34357;51.948;6.132;2023-07-29T07:25:04;6.05;;;4.82;;
48578;SDS011;34357;51.948;6.132;2023-07-29T07:27:30;6.03;;;4.65;;
48578;SDS011;34357;51.948;6.132;2023-07-29T07:29:56;11.07;;;5.20;;
48578;SDS011;34357;51.948;6.132;2023-07-29T07:32:21;6.90;;;4.80;;
48578;SDS011;34357;51.948;6.132;2023-07-29T07:34:47;9.70;;;4.82;;
48578;SDS011;34357;51.948;6.132;2023-07-29T07:37:13;6.00;;;4.13;;
48578;SDS011;34357;51.948;6.132;2023-07-29T07:39:39;6.57;;;4.45;;
48578;SDS011;34357;51.948;6.132;2023-07-29T07:42:05;7.55;;;4.20;;
48578;SDS011;34357;51.948;6.132;2023-07-29T07:44:31;8.70;;;4.55;;
48578;SDS011;34357;51.948;6.132;2023-07-29T07:46:56;5.38;;;4.25;;
48578;SDS011;34357;51.948;6.132;2023-07-29T07:49:22;8.35;;;4.30;;
48578;SDS011;34357;51.948;6.132;2023-07-29T07:51:48;7.10;;;4.40;;
48578;SDS011;34357;51.948;6.132;2023-07-29T07:54:14;8.38;;;5.00;;
48578;SDS011;34357;51.948;6.132;2023-07-29T07:56:39;6.57;;;5.10;;
48578;SDS011;34357;51.948;6.132;2023-07-29T07:59:05;7.70;;;5.10;;
48578;SDS011;34357;51.948;6.132;2023-07-29T08:01:34;8.27;;;4.75;;
48578;SDS011;34357;51.948;6.132;2023-07-29T08:04:01;6.40;;;4.43;;
48578;SDS011;34357;51.948;6.132;2023-07-29T08:06:28;7.00;;;4.53;;
48578;SDS011;34357;51.948;6.132;2023-07-29T08:08:53;5.85;;;4.63;;
48578;SDS011;34357;51.948;6.132;2023-07-29T08:11:19;5.15;;;4.05;;
48578;SDS011;34357;51.948;6.132;2023-07-29T08:13:45;7.10;;;4.35;;
48578;SDS011;34357;51.948;6.132;2023-07-29T08:16:12;6.57;;;4.43;;
48578;SDS011;34357;51.948;6.132;2023-07-29T08:18:38;6.30;;;4.70;;
48578;SDS011;34357;51.948;6.132;2023-07-29T08:21:04;5.70;;;4.38;;
48578;SDS011;34357;51.948;6.132;2023-07-29T08:23:30;7.97;;;4.63;;
48578;SDS011;34357;51.948;6.132;2023-07-29T08:25:57;7.05;;;5.00;;
48578;SDS011;34357;51.948;6.132;2023-07-29T08:28:30;6.18;;;4.35;;
48578;SDS011;34357;51.948;6.132;2023-07-29T08:31:00;5.07;;;4.55;;
48578;SDS011;34357;51.948;6.132;2023-07-29T08:33:26;5.88;;;4.40;;
48578;SDS011;34357;51.948;6.132;2023-07-29T08:35:53;6.60;;;4.38;;
48578;SDS011;34357;51.948;6.132;2023-07-29T08:38:18;6.18;;;4.32;;
48578;SDS011;34357;51.948;6.132;2023-07-29T08:40:45;6.45;;;4.43;;
48578;SDS011;34357;51.948;6.132;2023-07-29T08:43:19;5.07;;;4.07;;
48578;SDS011;34357;51.948;6.132;2023-07-29T08:45:48;7.75;;;4.65;;
48578;SDS011;34357;51.948;6.132;2023-07-29T08:48:15;4.80;;;3.90;;
48578;SDS011;34357;51.948;6.132;2023-07-29T08:50:47;5.60;;;3.80;;
48578;SDS011;34357;51.948;6.132;2023-07-29T08:53:14;4.28;;;3.72;;
48578;SDS011;34357;51.948;6.132;2023-07-29T08:55:40;5.95;;;3.65;;
48578;SDS011;34357;51.948;6.132;2023-07-29T08:58:05;4.65;;;3.10;;
48578;SDS011;34357;51.948;6.132;2023-07-29T09:00:31;6.07;;;2.90;;
48578;SDS011;34357;51.948;6.132;2023-07-29T09:02:57;3.50;;;2.78;;
48578;SDS011;34357;51.948;6.132;2023-07-29T09:05:27;3.30;;;3.00;;
48578;SDS011;34357;51.948;6.132;2023-07-29T09:07:53;4.53;;;2.63;;
48578;SDS011;34357;51.948;6.132;2023-07-29T09:10:24;3.92;;;2.70;;
48578;SDS011;34357;51.948;6.132;2023-07-29T09:12:51;3.72;;;2.75;;
48578;SDS011;34357;51.948;6.132;2023-07-29T09:15:30;2.97;;;2.28;;
48578;SDS011;34357;51.948;6.132;2023-07-29T09:17:57;4.20;;;2.20;;
48578;SDS011;34357;51.948;6.132;2023-07-29T09:20:26;3.42;;;2.08;;
48578;SDS011;34357;51.948;6.132;2023-07-29T09:22:57;3.95;;;2.42;;
48578;SDS011;34357;51.948;6.132;2023-07-29T09:25:27;3.22;;;2.08;;
48578;SDS011;34357;51.948;6.132;2023-07-29T09:27:58;4.70;;;2.00;;
48578;SDS011;34357;51.948;6.132;2023-07-29T09:30:27;5.13;;;2.10;;
48578;SDS011;34357;51.948;6.132;2023-07-29T09:32:57;3.03;;;1.55;;
48578;SDS011;34357;51.948;6.132;2023-07-29T09:35:23;4.53;;;2.05;;
48578;SDS011;34357;51.948;6.132;2023-07-29T09:37:53;4.22;;;2.03;;
48578;SDS011;34357;51.948;6.132;2023-07-29T09:40:19;4.82;;;2.20;;
48578;SDS011;34357;51.948;6.132;2023-07-29T09:42:49;2.75;;;2.00;;
48578;SDS011;34357;51.948;6.132;2023-07-29T09:45:19;4.05;;;2.45;;
48578;SDS011;34357;51.948;6.132;2023-07-29T09:47:48;4.40;;;2.00;;
48578;SDS011;34357;51.948;6.132;2023-07-29T09:50:15;2.45;;;2.10;;
48578;SDS011;34357;51.948;6.132;2023-07-29T09:52:41;4.53;;;1.90;;
48578;SDS011;34357;51.948;6.132;2023-07-29T09:55:09;3.15;;;1.88;;
48578;SDS011;34357;51.948;6.132;2023-07-29T09:57:37;4.00;;;1.92;;
48578;SDS011;34357;51.948;6.132;2023-07-29T10:00:04;5.40;;;2.25;;
48578;SDS011;34357;51.948;6.132;2023-07-29T10:02:36;3.55;;;1.90;;
48578;SDS011;34357;51.948;6.132;2023-07-29T10:05:06;3.58;;;2.28;;
48578;SDS011;34357;51.948;6.132;2023-07-29T10:07:36;5.18;;;2.17;;
48578;SDS011;34357;51.948;6.132;2023-07-29T10:10:06;6.07;;;2.10;;
48578;SDS011;34357;51.948;6.132;2023-07-29T10:12:33;4.85;;;2.22;;
48578;SDS011;34357;51.948;6.132;2023-07-29T10:15:01;3.28;;;2.15;;
48578;SDS011;34357;51.948;6.132;2023-07-29T10:20:01;3.50;;;2.10;;
48578;SDS011;34357;51.948;6.132;2023-07-29T10:22:33;5.22;;;1.92;;
48578;SDS011;34357;51.948;6.132;2023-07-29T10:25:10;3.58;;;1.90;;
48578;SDS011;34357;51.948;6.132;2023-07-29T10:30:12;3.60;;;1.85;;
48578;SDS011;34357;51.948;6.132;2023-07-29T10:32:41;5.57;;;1.90;;
48578;SDS011;34357;51.948;6.132;2023-07-29T10:35:14;4.75;;;2.20;;
48578;SDS011;34357;51.948;6.132;2023-07-29T10:37:41;4.18;;;2.20;;
48578;SDS011;34357;51.948;6.132;2023-07-29T10:40:10;4.07;;;2.58;;
48578;SDS011;34357;51.948;6.132;2023-07-29T10:42:37;2.75;;;2.22;;
48578;SDS011;34357;51.948;6.132;2023-07-29T10:45:24;4.20;;;2.30;;
48578;SDS011;34357;51.948;6.132;2023-07-29T10:47:49;3.25;;;2.67;;
48578;SDS011;34357;51.948;6.132;2023-07-29T10:50:19;3.03;;;2.40;;
48578;SDS011;34357;51.948;6.132;2023-07-29T10:55:30;2.60;;;2.17;;
48578;SDS011;34357;51.948;6.132;2023-07-29T11:00:30;3.30;;;2.60;;
48578;SDS011;34357;51.948;6.132;2023-07-29T11:03:05;4.20;;;2.25;;
48578;SDS011;34357;51.948;6.132;2023-07-29T11:05:50;4.07;;;2.33;;
48578;SDS011;34357;51.948;6.132;2023-07-29T11:08:21;3.03;;;2.20;;
48578;SDS011;34357;51.948;6.132;2023-07-29T11:11:06;2.65;;;2.08;;
48578;SDS011;34357;51.948;6.132;2023-07-29T11:13:33;5.68;;;1.92;;
48578;SDS011;34357;51.948;6.132;2023-07-29T11:16:01;2.85;;;1.92;;
48578;SDS011;34357;51.948;6.132;2023-07-29T11:18:27;4.30;;;2.00;;
48578;SDS011;34357;51.948;6.132;2023-07-29T11:20:55;2.75;;;1.85;;
48578;SDS011;34357;51.948;6.132;2023-07-29T11:23:35;3.45;;;1.95;;
48578;SDS011;34357;51.948;6.132;2023-07-29T11:26:02;2.85;;;1.55;;
48578;SDS011;34357;51.948;6.132;2023-07-29T11:28:29;2.75;;;1.55;;
48578;SDS011;34357;51.948;6.132;2023-07-29T11:30:55;2.72;;;1.83;;
48578;SDS011;34357;51.948;6.132;2023-07-29T11:33:23;4.03;;;1.50;;
48578;SDS011;34357;51.948;6.132;2023-07-29T11:35:50;3.80;;;1.83;;
48578;SDS011;34357;51.948;6.132;2023-07-29T11:38:17;3.58;;;1.60;;
48578;SDS011;34357;51.948;6.132;2023-07-29T11:40:53;2.92;;;1.80;;
48578;SDS011;34357;51.948;6.132;2023-07-29T11:43:20;2.65;;;1.65;;
48578;SDS011;34357;51.948;6.132;2023-07-29T11:45:46;5.95;;;1.73;;
48578;SDS011;34357;51.948;6.132;2023-07-29T11:48:11;2.00;;;1.33;;
48578;SDS011;34357;51.948;6.132;2023-07-29T11:50:37;3.45;;;1.30;;
48578;SDS011;34357;51.948;6.132;2023-07-29T11:53:03;1.67;;;1.08;;
48578;SDS011;34357;51.948;6.132;2023-07-29T11:55:28;2.75;;;1.20;;
48578;SDS011;34357;51.948;6.132;2023-07-29T11:57:55;4.57;;;1.25;;
48578;SDS011;34357;51.948;6.132;2023-07-29T12:00:21;2.67;;;1.35;;
48578;SDS011;34357;51.948;6.132;2023-07-29T12:02:47;1.80;;;1.23;;
48578;SDS011;34357;51.948;6.132;2023-07-29T12:05:14;3.83;;;1.33;;
48578;SDS011;34357;51.948;6.132;2023-07-29T12:07:41;2.13;;;1.38;;
48578;SDS011;34357;51.948;6.132;2023-07-29T12:10:09;2.15;;;1.20;;
48578;SDS011;34357;51.948;6.132;2023-07-29T12:12:53;4.65;;;1.50;;
48578;SDS011;34357;51.948;6.132;2023-07-29T12:15:24;7.53;;;2.45;;
48578;SDS011;34357;51.948;6.132;2023-07-29T12:17:54;12.32;;;3.33;;
48578;SDS011;34357;51.948;6.132;2023-07-29T12:20:24;6.60;;;3.22;;
48578;SDS011;34357;51.948;6.132;2023-07-29T12:22:52;8.63;;;4.57;;
48578;SDS011;34357;51.948;6.132;2023-07-29T12:25:19;8.65;;;4.45;;
48578;SDS011;34357;51.948;6.132;2023-07-29T12:27:44;8.95;;;4.28;;
48578;SDS011;34357;51.948;6.132;2023-07-29T12:30:10;5.20;;;3.58;;
48578;SDS011;34357;51.948;6.132;2023-07-29T12:32:43;4.60;;;2.92;;
48578;SDS011;34357;51.948;6.132;2023-07-29T12:35:12;5.32;;;3.50;;
48578;SDS011;34357;51.948;6.132;2023-07-29T12:37:39;4.53;;;2.88;;
48578;SDS011;34357;51.948;6.132;2023-07-29T12:40:09;4.90;;;2.58;;
48578;SDS011;34357;51.948;6.132;2023-07-29T12:42:51;4.80;;;2.83;;
48578;SDS011;34357;51.948;6.132;2023-07-29T12:45:17;9.05;;;2.42;;
48578;SDS011;34357;51.948;6.132;2023-07-29T12:47:43;4.93;;;2.38;;
48578;SDS011;34357;51.948;6.132;2023-07-29T12:50:09;6.00;;;2.58;;
48578;SDS011;34357;51.948;6.132;2023-07-29T12:52:35;5.60;;;2.70;;
48578;SDS011;34357;51.948;6.132;2023-07-29T12:55:01;4.57;;;2.42;;
48578;SDS011;34357;51.948;6.132;2023-07-29T12:57:26;3.85;;;2.60;;
48578;SDS011;34357;51.948;6.132;2023-07-29T12:59:52;5.68;;;2.67;;
48578;SDS011;34357;51.948;6.132;2023-07-29T13:02:18;3.80;;;2.13;;
48578;SDS011;34357;51.948;6.132;2023-07-29T13:04:44;3.50;;;1.50;;
48578;SDS011;34357;51.948;6.132;2023-07-29T13:07:09;3.92;;;1.63;;
48578;SDS011;34357;51.948;6.132;2023-07-29T13:09:35;2.03;;;1.25;;
48578;SDS011;34357;51.948;6.132;2023-07-29T13:12:01;4.13;;;1.63;;
48578;SDS011;34357;51.948;6.132;2023-07-29T13:14:27;2.50;;;1.13;;
48578;SDS011;34357;51.948;6.132;2023-07-29T13:16:53;3.95;;;1.58;;
48578;SDS011;34357;51.948;6.132;2023-07-29T13:19:19;4.03;;;1.77;;
48578;SDS011;34357;51.948;6.132;2023-07-29T13:21:44;2.90;;;1.77;;
48578;SDS011;34357;51.948;6.132;2023-07-29T13:24:10;2.17;;;1.58;;
48578;SDS011;34357;51.948;6.132;2023-07-29T13:26:36;2.80;;;1.90;;
48578;SDS011;34357;51.948;6.132;2023-07-29T13:29:02;19.95;;;3.67;;
48578;SDS011;34357;51.948;6.132;2023-07-29T13:31:29;4.45;;;2.35;;
48578;SDS011;34357;51.948;6.132;2023-07-29T13:33:56;5.22;;;2.60;;
48578;SDS011;34357;51.948;6.132;2023-07-29T13:36:22;5.45;;;3.00;;
48578;SDS011;34357;51.948;6.132;2023-07-29T13:38:47;3.83;;;2.40;;
48578;SDS011;34357;51.948;6.132;2023-07-29T13:41:13;4.22;;;2.78;;
48578;SDS011;34357;51.948;6.132;2023-07-29T13:43:39;3.45;;;2.88;;
48578;SDS011;34357;51.948;6.132;2023-07-29T13:46:05;3.65;;;2.58;;
48578;SDS011;34357;51.948;6.132;2023-07-29T13:48:31;4.13;;;2.58;;
48578;SDS011;34357;51.948;6.132;2023-07-29T13:50:58;2.85;;;2.50;;
48578;SDS011;34357;51.948;6.132;2023-07-29T13:53:24;2.33;;;1.83;;
48578;SDS011;34357;51.948;6.132;2023-07-29T13:55:50;2.38;;;2.10;;
48578;SDS011;34357;51.948;6.132;2023-07-29T13:58:16;2.30;;;2.10;;
48578;SDS011;34357;51.948;6.132;2023-07-29T14:00:42;2.42;;;1.90;;
48578;SDS011;34357;51.948;6.132;2023-07-29T14:03:08;3.60;;;2.00;;
48578;SDS011;34357;51.948;6.132;2023-07-29T14:05:33;1.50;;;1.40;;
48578;SDS011;34357;51.948;6.132;2023-07-29T14:07:59;1.80;;;1.63;;
48578;SDS011;34357;51.948;6.132;2023-07-29T14:10:25;1.63;;;1.50;;
48578;SDS011;34357;51.948;6.132;2023-07-29T14:12:51;2.35;;;1.30;;
48578;SDS011;34357;51.948;6.132;2023-07-29T14:15:17;1.30;;;1.17;;
48578;SDS011;34357;51.948;6.132;2023-07-29T14:17:43;1.55;;;1.15;;
48578;SDS011;34357;51.948;6.132;2023-07-29T14:20:09;1.60;;;1.10;;
48578;SDS011;34357;51.948;6.132;2023-07-29T14:22:35;1.30;;;1.20;;
48578;SDS011;34357;51.948;6.132;2023-07-29T14:25:01;4.07;;;1.60;;
48578;SDS011;34357;51.948;6.132;2023-07-29T14:27:27;1.92;;;1.60;;
48578;SDS011;34357;51.948;6.132;2023-07-29T14:29:53;1.92;;;1.77;;
48578;SDS011;34357;51.948;6.132;2023-07-29T14:32:19;2.78;;;1.63;;
48578;SDS011;34357;51.948;6.132;2023-07-29T14:34:45;2.97;;;1.70;;
48578;SDS011;34357;51.948;6.132;2023-07-29T14:37:10;2.58;;;1.60;;
48578;SDS011;34357;51.948;6.132;2023-07-29T14:39:36;2.10;;;1.58;;
48578;SDS011;34357;51.948;6.132;2023-07-29T14:42:02;1.70;;;1.48;;
48578;SDS011;34357;51.948;6.132;2023-07-29T14:44:28;1.90;;;1.70;;
48578;SDS011;34357;51.948;6.132;2023-07-29T14:46:54;1.95;;;1.67;;
48578;SDS011;34357;51.948;6.132;2023-07-29T14:49:20;2.22;;;1.60;;
48578;SDS011;34357;51.948;6.132;2023-07-29T14:51:46;1.92;;;1.52;;
48578;SDS011;34357;51.948;6.132;2023-07-29T14:54:12;2.78;;;1.45;;
48578;SDS011;34357;51.948;6.132;2023-07-29T14:56:37;1.70;;;1.40;;